sensor_id;sensor_type;location;lat;lon;timestamp;P1;durP1;ratioP1;P2;durP2;ratioP2
50102;SDS011;35993;52.604;10.078;2023-05-10T00:00:36;4.60;;;2.65;;
50102;SDS011;35993;52.604;10.078;2023-05-10T00:03:02;4.13;;;2.80;;
50102;SDS011;35993;52.604;10.078;2023-05-10T00:05:30;4.50;;;2.67;;
50102;SDS011;35993;52.604;10.078;2023-05-10T00:07:56;4.20;;;3.00;;
50102;SDS011;35993;52.604;10.078;2023-05-10T00:10:22;3.78;;;2.85;;
50102;SDS011;35993;52.604;10.078;2023-05-10T00:12:47;5.78;;;3.10;;
50102;SDS011;35993;52.604;10.078;2023-05-10T00:15:13;5.30;;;3.22;;
50102;SDS011;35993;52.604;10.078;2023-05-10T00:17:38;4.57;;;3.00;;
50102;SDS011;35993;52.604;10.078;2023-05-10T00:20:04;3.85;;;2.53;;
50102;SDS011;35993;52.604;10.078;2023-05-10T00:22:30;5.15;;;2.97;;
50102;SDS011;35993;52.604;10.078;2023-05-10T00:24:57;4.65;;;3.05;;
50102;SDS011;35993;52.604;10.078;2023-05-10T00:27:22;5.65;;;3.05;;
50102;SDS011;35993;52.604;10.078;2023-05-10T00:29:48;6.22;;;3.10;;
50102;SDS011;35993;52.604;10.078;2023-05-10T00:32:14;4.60;;;2.75;;
50102;SDS011;35993;52.604;10.078;2023-05-10T00:34:42;4.72;;;3.00;;
50102;SDS011;35993;52.604;10.078;2023-05-10T00:37:08;3.63;;;2.90;;
50102;SDS011;35993;52.604;10.078;2023-05-10T00:39:36;4.55;;;3.20;;
50102;SDS011;35993;52.604;10.078;2023-05-10T00:42:02;4.05;;;2.83;;
50102;SDS011;35993;52.604;10.078;2023-05-10T00:44:29;4.30;;;2.80;;
50102;SDS011;35993;52.604;10.078;2023-05-10T00:46:57;6.07;;;3.13;;
50102;SDS011;35993;52.604;10.078;2023-05-10T00:49:25;4.63;;;2.92;;
50102;SDS011;35993;52.604;10.078;2023-05-10T00:51:51;4.70;;;3.30;;
50102;SDS011;35993;52.604;10.078;2023-05-10T00:54:17;6.43;;;3.00;;
50102;SDS011;35993;52.604;10.078;2023-05-10T00:56:44;6.07;;;2.97;;
50102;SDS011;35993;52.604;10.078;2023-05-10T00:59:15;7.78;;;3.20;;
50102;SDS011;35993;52.604;10.078;2023-05-10T01:01:45;7.18;;;2.95;;
50102;SDS011;35993;52.604;10.078;2023-05-10T01:04:11;5.28;;;3.03;;
50102;SDS011;35993;52.604;10.078;2023-05-10T01:06:39;8.38;;;2.90;;
50102;SDS011;35993;52.604;10.078;2023-05-10T01:09:05;7.43;;;3.17;;
50102;SDS011;35993;52.604;10.078;2023-05-10T01:11:35;4.07;;;2.85;;
50102;SDS011;35993;52.604;10.078;2023-05-10T01:14:02;4.85;;;3.22;;
50102;SDS011;35993;52.604;10.078;2023-05-10T01:16:29;8.00;;;3.15;;
50102;SDS011;35993;52.604;10.078;2023-05-10T01:19:01;8.52;;;3.08;;
50102;SDS011;35993;52.604;10.078;2023-05-10T01:21:52;5.35;;;3.20;;
50102;SDS011;35993;52.604;10.078;2023-05-10T01:30:29;4.25;;;3.08;;
50102;SDS011;35993;52.604;10.078;2023-05-10T01:35:47;5.88;;;3.38;;
50102;SDS011;35993;52.604;10.078;2023-05-10T01:38:32;5.38;;;3.20;;
50102;SDS011;35993;52.604;10.078;2023-05-10T01:43:56;4.60;;;3.10;;
50102;SDS011;35993;52.604;10.078;2023-05-10T01:46:40;6.93;;;2.90;;
50102;SDS011;35993;52.604;10.078;2023-05-10T01:49:11;4.63;;;3.10;;
50102;SDS011;35993;52.604;10.078;2023-05-10T01:51:44;4.38;;;3.15;;
50102;SDS011;35993;52.604;10.078;2023-05-10T01:54:13;4.68;;;3.00;;
50102;SDS011;35993;52.604;10.078;2023-05-10T01:56:42;5.25;;;3.38;;
50102;SDS011;35993;52.604;10.078;2023-05-10T01:59:12;6.53;;;3.38;;
50102;SDS011;35993;52.604;10.078;2023-05-10T02:01:40;5.10;;;3.30;;
50102;SDS011;35993;52.604;10.078;2023-05-10T02:04:08;6.15;;;3.22;;
50102;SDS011;35993;52.604;10.078;2023-05-10T02:06:36;4.05;;;3.10;;
50102;SDS011;35993;52.604;10.078;2023-05-10T02:09:04;5.80;;;3.05;;
50102;SDS011;35993;52.604;10.078;2023-05-10T02:11:31;5.70;;;3.25;;
50102;SDS011;35993;52.604;10.078;2023-05-10T02:13:57;4.15;;;3.05;;
50102;SDS011;35993;52.604;10.078;2023-05-10T02:16:28;4.22;;;3.35;;
50102;SDS011;35993;52.604;10.078;2023-05-10T02:18:55;8.05;;;3.17;;
50102;SDS011;35993;52.604;10.078;2023-05-10T02:21:24;4.28;;;3.28;;
50102;SDS011;35993;52.604;10.078;2023-05-10T02:23:51;3.17;;;2.72;;
50102;SDS011;35993;52.604;10.078;2023-05-10T02:26:18;4.97;;;3.00;;
50102;SDS011;35993;52.604;10.078;2023-05-10T02:28:47;5.20;;;3.30;;
50102;SDS011;35993;52.604;10.078;2023-05-10T02:31:14;5.45;;;3.50;;
50102;SDS011;35993;52.604;10.078;2023-05-10T02:33:40;4.65;;;3.08;;
50102;SDS011;35993;52.604;10.078;2023-05-10T02:36:08;4.55;;;3.13;;
50102;SDS011;35993;52.604;10.078;2023-05-10T02:38:35;5.25;;;3.22;;
50102;SDS011;35993;52.604;10.078;2023-05-10T02:41:01;8.27;;;3.58;;
50102;SDS011;35993;52.604;10.078;2023-05-10T02:43:30;4.90;;;3.10;;
50102;SDS011;35993;52.604;10.078;2023-05-10T02:45:58;4.80;;;2.97;;
50102;SDS011;35993;52.604;10.078;2023-05-10T02:48:24;6.32;;;3.47;;
50102;SDS011;35993;52.604;10.078;2023-05-10T02:50:50;6.72;;;3.20;;
50102;SDS011;35993;52.604;10.078;2023-05-10T02:53:26;7.43;;;3.30;;
50102;SDS011;35993;52.604;10.078;2023-05-10T02:55:57;4.70;;;2.95;;
50102;SDS011;35993;52.604;10.078;2023-05-10T02:58:25;5.53;;;3.30;;
50102;SDS011;35993;52.604;10.078;2023-05-10T03:00:51;4.47;;;3.20;;
50102;SDS011;35993;52.604;10.078;2023-05-10T03:03:17;4.28;;;3.22;;
50102;SDS011;35993;52.604;10.078;2023-05-10T03:05:43;6.05;;;3.53;;
50102;SDS011;35993;52.604;10.078;2023-05-10T03:08:09;4.32;;;3.40;;
50102;SDS011;35993;52.604;10.078;2023-05-10T03:10:38;5.50;;;3.30;;
50102;SDS011;35993;52.604;10.078;2023-05-10T03:13:14;6.90;;;3.60;;
50102;SDS011;35993;52.604;10.078;2023-05-10T03:15:56;6.78;;;3.70;;
50102;SDS011;35993;52.604;10.078;2023-05-10T03:21:13;6.30;;;3.63;;
50102;SDS011;35993;52.604;10.078;2023-05-10T03:23:43;4.47;;;3.30;;
50102;SDS011;35993;52.604;10.078;2023-05-10T03:26:20;4.90;;;3.53;;
50102;SDS011;35993;52.604;10.078;2023-05-10T03:28:52;4.85;;;3.35;;
50102;SDS011;35993;52.604;10.078;2023-05-10T03:31:18;4.45;;;3.40;;
50102;SDS011;35993;52.604;10.078;2023-05-10T03:33:47;5.65;;;3.30;;
50102;SDS011;35993;52.604;10.078;2023-05-10T03:36:17;4.78;;;3.45;;
50102;SDS011;35993;52.604;10.078;2023-05-10T03:38:43;5.88;;;3.65;;
50102;SDS011;35993;52.604;10.078;2023-05-10T03:41:08;5.40;;;3.40;;
50102;SDS011;35993;52.604;10.078;2023-05-10T03:43:34;7.07;;;3.38;;
50102;SDS011;35993;52.604;10.078;2023-05-10T03:46:03;5.75;;;3.42;;
50102;SDS011;35993;52.604;10.078;2023-05-10T03:48:30;8.40;;;3.58;;
50102;SDS011;35993;52.604;10.078;2023-05-10T03:50:56;5.18;;;3.38;;
50102;SDS011;35993;52.604;10.078;2023-05-10T03:53:21;7.70;;;3.38;;
50102;SDS011;35993;52.604;10.078;2023-05-10T03:55:48;6.45;;;3.50;;
50102;SDS011;35993;52.604;10.078;2023-05-10T03:58:14;4.72;;;3.33;;
50102;SDS011;35993;52.604;10.078;2023-05-10T04:00:40;5.22;;;3.00;;
50102;SDS011;35993;52.604;10.078;2023-05-10T04:03:09;5.25;;;3.45;;
50102;SDS011;35993;52.604;10.078;2023-05-10T04:05:35;4.78;;;3.55;;
50102;SDS011;35993;52.604;10.078;2023-05-10T04:08:01;7.10;;;3.88;;
50102;SDS011;35993;52.604;10.078;2023-05-10T04:10:29;5.75;;;3.30;;
50102;SDS011;35993;52.604;10.078;2023-05-10T04:12:54;5.55;;;3.55;;
50102;SDS011;35993;52.604;10.078;2023-05-10T04:15:20;5.60;;;3.65;;
50102;SDS011;35993;52.604;10.078;2023-05-10T04:17:45;8.27;;;3.42;;
50102;SDS011;35993;52.604;10.078;2023-05-10T04:20:11;4.60;;;3.13;;
50102;SDS011;35993;52.604;10.078;2023-05-10T04:22:37;5.20;;;3.20;;
50102;SDS011;35993;52.604;10.078;2023-05-10T04:25:03;6.03;;;3.58;;
50102;SDS011;35993;52.604;10.078;2023-05-10T04:27:30;6.72;;;3.85;;
50102;SDS011;35993;52.604;10.078;2023-05-10T04:29:56;5.57;;;3.50;;
50102;SDS011;35993;52.604;10.078;2023-05-10T04:32:22;8.15;;;3.35;;
50102;SDS011;35993;52.604;10.078;2023-05-10T04:34:47;5.45;;;3.50;;
50102;SDS011;35993;52.604;10.078;2023-05-10T04:37:13;7.72;;;3.67;;
50102;SDS011;35993;52.604;10.078;2023-05-10T04:39:38;5.80;;;3.33;;
50102;SDS011;35993;52.604;10.078;2023-05-10T04:42:04;11.20;;;3.70;;
50102;SDS011;35993;52.604;10.078;2023-05-10T04:44:31;5.45;;;3.47;;
50102;SDS011;35993;52.604;10.078;2023-05-10T04:46:57;5.18;;;3.28;;
50102;SDS011;35993;52.604;10.078;2023-05-10T04:49:22;4.53;;;3.40;;
50102;SDS011;35993;52.604;10.078;2023-05-10T04:51:48;4.60;;;3.13;;
50102;SDS011;35993;52.604;10.078;2023-05-10T04:54:14;8.40;;;3.63;;
50102;SDS011;35993;52.604;10.078;2023-05-10T04:56:39;7.95;;;3.60;;
50102;SDS011;35993;52.604;10.078;2023-05-10T04:59:06;4.97;;;3.40;;
50102;SDS011;35993;52.604;10.078;2023-05-10T05:01:32;6.43;;;3.70;;
50102;SDS011;35993;52.604;10.078;2023-05-10T05:03:58;5.70;;;3.55;;
50102;SDS011;35993;52.604;10.078;2023-05-10T05:06:23;6.28;;;3.42;;
50102;SDS011;35993;52.604;10.078;2023-05-10T05:08:50;5.57;;;3.40;;
50102;SDS011;35993;52.604;10.078;2023-05-10T05:11:16;4.75;;;3.20;;
50102;SDS011;35993;52.604;10.078;2023-05-10T05:13:42;4.70;;;3.50;;
50102;SDS011;35993;52.604;10.078;2023-05-10T05:16:08;5.60;;;3.47;;
50102;SDS011;35993;52.604;10.078;2023-05-10T05:18:34;7.07;;;3.55;;
50102;SDS011;35993;52.604;10.078;2023-05-10T05:20:59;4.95;;;3.50;;
50102;SDS011;35993;52.604;10.078;2023-05-10T05:23:25;10.30;;;3.90;;
50102;SDS011;35993;52.604;10.078;2023-05-10T05:25:51;6.05;;;3.72;;
50102;SDS011;35993;52.604;10.078;2023-05-10T05:28:18;6.75;;;3.75;;
50102;SDS011;35993;52.604;10.078;2023-05-10T05:30:44;5.05;;;3.58;;
50102;SDS011;35993;52.604;10.078;2023-05-10T05:33:09;5.72;;;3.55;;
50102;SDS011;35993;52.604;10.078;2023-05-10T05:35:35;6.60;;;3.60;;
50102;SDS011;35993;52.604;10.078;2023-05-10T05:38:01;5.95;;;3.80;;
50102;SDS011;35993;52.604;10.078;2023-05-10T05:40:26;5.80;;;3.50;;
50102;SDS011;35993;52.604;10.078;2023-05-10T05:42:52;6.38;;;3.30;;
50102;SDS011;35993;52.604;10.078;2023-05-10T05:45:18;5.50;;;3.38;;
50102;SDS011;35993;52.604;10.078;2023-05-10T05:47:43;6.15;;;3.33;;
50102;SDS011;35993;52.604;10.078;2023-05-10T05:50:09;11.38;;;3.45;;
50102;SDS011;35993;52.604;10.078;2023-05-10T05:52:35;6.38;;;3.75;;
50102;SDS011;35993;52.604;10.078;2023-05-10T05:55:01;5.45;;;3.88;;
50102;SDS011;35993;52.604;10.078;2023-05-10T05:57:26;6.70;;;4.13;;
50102;SDS011;35993;52.604;10.078;2023-05-10T05:59:52;7.15;;;4.00;;
50102;SDS011;35993;52.604;10.078;2023-05-10T06:02:18;7.03;;;4.20;;
50102;SDS011;35993;52.604;10.078;2023-05-10T06:04:43;5.60;;;3.90;;
50102;SDS011;35993;52.604;10.078;2023-05-10T06:07:08;6.60;;;3.45;;
50102;SDS011;35993;52.604;10.078;2023-05-10T06:09:34;6.13;;;4.05;;
50102;SDS011;35993;52.604;10.078;2023-05-10T06:12:00;5.50;;;3.85;;
50102;SDS011;35993;52.604;10.078;2023-05-10T06:14:26;5.10;;;3.70;;
50102;SDS011;35993;52.604;10.078;2023-05-10T06:16:52;6.85;;;3.72;;
50102;SDS011;35993;52.604;10.078;2023-05-10T06:19:18;6.80;;;3.95;;
50102;SDS011;35993;52.604;10.078;2023-05-10T06:21:43;5.55;;;3.88;;
50102;SDS011;35993;52.604;10.078;2023-05-10T06:24:09;6.03;;;3.97;;
50102;SDS011;35993;52.604;10.078;2023-05-10T06:26:34;7.63;;;4.32;;
50102;SDS011;35993;52.604;10.078;2023-05-10T06:29:00;6.00;;;4.28;;
50102;SDS011;35993;52.604;10.078;2023-05-10T06:31:26;9.07;;;4.60;;
50102;SDS011;35993;52.604;10.078;2023-05-10T06:33:51;6.28;;;4.28;;
50102;SDS011;35993;52.604;10.078;2023-05-10T06:36:17;7.50;;;3.75;;
50102;SDS011;35993;52.604;10.078;2023-05-10T06:38:43;8.30;;;4.25;;
50102;SDS011;35993;52.604;10.078;2023-05-10T06:41:08;8.35;;;4.00;;
50102;SDS011;35993;52.604;10.078;2023-05-10T06:43:34;7.65;;;4.43;;
50102;SDS011;35993;52.604;10.078;2023-05-10T06:45:59;7.20;;;4.30;;
50102;SDS011;35993;52.604;10.078;2023-05-10T06:48:25;7.95;;;4.50;;
50102;SDS011;35993;52.604;10.078;2023-05-10T06:50:50;8.02;;;4.30;;
50102;SDS011;35993;52.604;10.078;2023-05-10T06:53:16;8.63;;;4.35;;
50102;SDS011;35993;52.604;10.078;2023-05-10T06:55:41;5.93;;;4.20;;
50102;SDS011;35993;52.604;10.078;2023-05-10T06:58:07;7.30;;;4.50;;
50102;SDS011;35993;52.604;10.078;2023-05-10T07:00:33;8.23;;;4.53;;
50102;SDS011;35993;52.604;10.078;2023-05-10T07:02:58;6.95;;;4.80;;
50102;SDS011;35993;52.604;10.078;2023-05-10T07:05:24;8.25;;;4.68;;
50102;SDS011;35993;52.604;10.078;2023-05-10T07:07:49;5.82;;;4.57;;
50102;SDS011;35993;52.604;10.078;2023-05-10T07:10:15;6.95;;;5.05;;
50102;SDS011;35993;52.604;10.078;2023-05-10T07:12:41;8.02;;;5.10;;
50102;SDS011;35993;52.604;10.078;2023-05-10T07:15:07;7.25;;;4.63;;
50102;SDS011;35993;52.604;10.078;2023-05-10T07:17:33;5.80;;;4.90;;
50102;SDS011;35993;52.604;10.078;2023-05-10T07:19:59;8.65;;;5.07;;
50102;SDS011;35993;52.604;10.078;2023-05-10T07:22:25;9.18;;;4.80;;
50102;SDS011;35993;52.604;10.078;2023-05-10T07:24:51;7.53;;;4.80;;
50102;SDS011;35993;52.604;10.078;2023-05-10T07:27:16;9.00;;;5.40;;
50102;SDS011;35993;52.604;10.078;2023-05-10T07:29:42;7.97;;;5.07;;
50102;SDS011;35993;52.604;10.078;2023-05-10T07:32:07;8.18;;;5.32;;
50102;SDS011;35993;52.604;10.078;2023-05-10T07:34:33;7.60;;;5.57;;
50102;SDS011;35993;52.604;10.078;2023-05-10T07:36:59;7.28;;;5.00;;
50102;SDS011;35993;52.604;10.078;2023-05-10T07:39:25;7.90;;;5.60;;
50102;SDS011;35993;52.604;10.078;2023-05-10T07:41:51;8.00;;;5.28;;
50102;SDS011;35993;52.604;10.078;2023-05-10T07:44:17;6.72;;;5.60;;
50102;SDS011;35993;52.604;10.078;2023-05-10T07:46:45;8.55;;;5.63;;
50102;SDS011;35993;52.604;10.078;2023-05-10T07:49:12;10.02;;;5.55;;
50102;SDS011;35993;52.604;10.078;2023-05-10T07:51:37;10.23;;;5.65;;
50102;SDS011;35993;52.604;10.078;2023-05-10T07:54:03;7.65;;;5.65;;
50102;SDS011;35993;52.604;10.078;2023-05-10T07:56:29;9.20;;;5.65;;
50102;SDS011;35993;52.604;10.078;2023-05-10T07:58:57;8.88;;;6.00;;
50102;SDS011;35993;52.604;10.078;2023-05-10T08:01:24;9.55;;;6.07;;
50102;SDS011;35993;52.604;10.078;2023-05-10T08:03:50;7.72;;;5.57;;
50102;SDS011;35993;52.604;10.078;2023-05-10T08:06:19;7.68;;;5.90;;
50102;SDS011;35993;52.604;10.078;2023-05-10T08:08:46;9.77;;;6.50;;
50102;SDS011;35993;52.604;10.078;2023-05-10T08:11:15;9.10;;;6.00;;
50102;SDS011;35993;52.604;10.078;2023-05-10T08:13:41;9.32;;;6.70;;
50102;SDS011;35993;52.604;10.078;2023-05-10T08:16:07;8.93;;;6.18;;
50102;SDS011;35993;52.604;10.078;2023-05-10T08:18:32;9.27;;;6.63;;
50102;SDS011;35993;52.604;10.078;2023-05-10T08:20:58;11.48;;;6.82;;
50102;SDS011;35993;52.604;10.078;2023-05-10T08:23:23;9.57;;;6.57;;
50102;SDS011;35993;52.604;10.078;2023-05-10T08:25:49;10.63;;;7.03;;
50102;SDS011;35993;52.604;10.078;2023-05-10T08:28:14;9.32;;;7.00;;
50102;SDS011;35993;52.604;10.078;2023-05-10T08:30:40;9.88;;;7.22;;
50102;SDS011;35993;52.604;10.078;2023-05-10T08:33:06;12.65;;;7.20;;
50102;SDS011;35993;52.604;10.078;2023-05-10T08:35:31;11.38;;;7.25;;
50102;SDS011;35993;52.604;10.078;2023-05-10T08:37:58;8.90;;;6.85;;
50102;SDS011;35993;52.604;10.078;2023-05-10T08:40:23;10.45;;;7.38;;
50102;SDS011;35993;52.604;10.078;2023-05-10T08:42:54;11.20;;;7.63;;
50102;SDS011;35993;52.604;10.078;2023-05-10T08:45:26;9.10;;;7.20;;
50102;SDS011;35993;52.604;10.078;2023-05-10T08:47:57;10.35;;;7.53;;
50102;SDS011;35993;52.604;10.078;2023-05-10T08:50:24;11.77;;;7.43;;
50102;SDS011;35993;52.604;10.078;2023-05-10T08:52:50;13.57;;;8.00;;
50102;SDS011;35993;52.604;10.078;2023-05-10T08:55:20;10.52;;;7.60;;
50102;SDS011;35993;52.604;10.078;2023-05-10T08:57:48;11.32;;;7.53;;
50102;SDS011;35993;52.604;10.078;2023-05-10T09:00:14;10.35;;;7.65;;
50102;SDS011;35993;52.604;10.078;2023-05-10T09:02:40;10.57;;;7.75;;
50102;SDS011;35993;52.604;10.078;2023-05-10T09:05:08;9.00;;;7.65;;
50102;SDS011;35993;52.604;10.078;2023-05-10T09:07:35;11.05;;;7.70;;
50102;SDS011;35993;52.604;10.078;2023-05-10T09:10:00;8.00;;;6.40;;
50102;SDS011;35993;52.604;10.078;2023-05-10T09:12:26;8.63;;;6.65;;
50102;SDS011;35993;52.604;10.078;2023-05-10T09:14:52;9.73;;;6.68;;
50102;SDS011;35993;52.604;10.078;2023-05-10T09:17:21;9.27;;;6.13;;
50102;SDS011;35993;52.604;10.078;2023-05-10T09:19:48;8.27;;;6.10;;
50102;SDS011;35993;52.604;10.078;2023-05-10T09:22:14;8.27;;;6.38;;
50102;SDS011;35993;52.604;10.078;2023-05-10T09:24:40;9.57;;;6.18;;
50102;SDS011;35993;52.604;10.078;2023-05-10T09:27:10;6.68;;;4.93;;
50102;SDS011;35993;52.604;10.078;2023-05-10T09:29:39;7.53;;;4.80;;
50102;SDS011;35993;52.604;10.078;2023-05-10T09:32:07;6.13;;;4.70;;
50102;SDS011;35993;52.604;10.078;2023-05-10T09:34:32;7.00;;;4.80;;
50102;SDS011;35993;52.604;10.078;2023-05-10T09:37:00;5.82;;;4.50;;
50102;SDS011;35993;52.604;10.078;2023-05-10T09:39:31;5.10;;;4.05;;
50102;SDS011;35993;52.604;10.078;2023-05-10T09:42:05;5.65;;;4.15;;
50102;SDS011;35993;52.604;10.078;2023-05-10T09:46:59;7.20;;;4.47;;
50102;SDS011;35993;52.604;10.078;2023-05-10T09:49:26;6.55;;;4.38;;
50102;SDS011;35993;52.604;10.078;2023-05-10T09:51:59;5.07;;;4.00;;
50102;SDS011;35993;52.604;10.078;2023-05-10T09:54:29;6.63;;;4.15;;
50102;SDS011;35993;52.604;10.078;2023-05-10T09:56:54;5.18;;;3.75;;
50102;SDS011;35993;52.604;10.078;2023-05-10T09:59:20;5.65;;;4.22;;
50102;SDS011;35993;52.604;10.078;2023-05-10T10:01:49;4.50;;;3.42;;
50102;SDS011;35993;52.604;10.078;2023-05-10T10:04:16;4.53;;;3.72;;
50102;SDS011;35993;52.604;10.078;2023-05-10T10:06:42;6.55;;;3.40;;
50102;SDS011;35993;52.604;10.078;2023-05-10T10:09:08;4.43;;;3.10;;
50102;SDS011;35993;52.604;10.078;2023-05-10T10:11:34;5.40;;;3.80;;
50102;SDS011;35993;52.604;10.078;2023-05-10T10:14:01;6.25;;;3.72;;
50102;SDS011;35993;52.604;10.078;2023-05-10T10:16:30;4.47;;;3.45;;
50102;SDS011;35993;52.604;10.078;2023-05-10T10:18:57;3.90;;;2.92;;
50102;SDS011;35993;52.604;10.078;2023-05-10T10:21:23;3.85;;;3.22;;
50102;SDS011;35993;52.604;10.078;2023-05-10T10:23:49;5.68;;;3.20;;
50102;SDS011;35993;52.604;10.078;2023-05-10T10:26:15;4.07;;;3.35;;
50102;SDS011;35993;52.604;10.078;2023-05-10T10:31:47;4.47;;;2.90;;
50102;SDS011;35993;52.604;10.078;2023-05-10T10:34:28;3.75;;;3.08;;
50102;SDS011;35993;52.604;10.078;2023-05-10T10:36:55;4.05;;;2.88;;
50102;SDS011;35993;52.604;10.078;2023-05-10T10:39:22;3.45;;;2.90;;
50102;SDS011;35993;52.604;10.078;2023-05-10T10:41:51;3.50;;;2.95;;
50102;SDS011;35993;52.604;10.078;2023-05-10T10:52:21;3.70;;;2.67;;
50102;SDS011;35993;52.604;10.078;2023-05-10T10:55:02;3.90;;;3.00;;
50102;SDS011;35993;52.604;10.078;2023-05-10T10:57:31;3.92;;;3.05;;
50102;SDS011;35993;52.604;10.078;2023-05-10T11:00:20;3.53;;;2.85;;
50102;SDS011;35993;52.604;10.078;2023-05-10T11:02:47;4.38;;;3.22;;
50102;SDS011;35993;52.604;10.078;2023-05-10T11:07:57;4.30;;;2.88;;
50102;SDS011;35993;52.604;10.078;2023-05-10T11:10:24;4.43;;;3.22;;
50102;SDS011;35993;52.604;10.078;2023-05-10T11:13:12;3.60;;;2.90;;
50102;SDS011;35993;52.604;10.078;2023-05-10T11:15:37;4.40;;;3.35;;
50102;SDS011;35993;52.604;10.078;2023-05-10T11:18:23;4.85;;;3.50;;
50102;SDS011;35993;52.604;10.078;2023-05-10T11:20:57;4.65;;;3.30;;
50102;SDS011;35993;52.604;10.078;2023-05-10T11:23:31;3.67;;;3.13;;
50102;SDS011;35993;52.604;10.078;2023-05-10T11:26:12;5.90;;;3.60;;
50102;SDS011;35993;52.604;10.078;2023-05-10T11:28:45;3.95;;;2.95;;
50102;SDS011;35993;52.604;10.078;2023-05-10T11:31:18;4.90;;;3.00;;
50102;SDS011;35993;52.604;10.078;2023-05-10T11:33:52;4.82;;;2.67;;
50102;SDS011;35993;52.604;10.078;2023-05-10T11:36:20;2.90;;;2.50;;
50102;SDS011;35993;52.604;10.078;2023-05-10T11:38:49;3.70;;;2.60;;
50102;SDS011;35993;52.604;10.078;2023-05-10T11:41:15;3.45;;;2.50;;
50102;SDS011;35993;52.604;10.078;2023-05-10T11:43:42;4.10;;;3.03;;
50102;SDS011;35993;52.604;10.078;2023-05-10T11:46:12;4.88;;;2.65;;
50102;SDS011;35993;52.604;10.078;2023-05-10T11:48:38;4.28;;;3.10;;
50102;SDS011;35993;52.604;10.078;2023-05-10T11:51:06;4.03;;;3.05;;
50102;SDS011;35993;52.604;10.078;2023-05-10T11:53:32;4.10;;;3.25;;
50102;SDS011;35993;52.604;10.078;2023-05-10T11:56:08;6.85;;;3.10;;
50102;SDS011;35993;52.604;10.078;2023-05-10T11:58:35;3.40;;;3.00;;
50102;SDS011;35993;52.604;10.078;2023-05-10T12:01:02;5.05;;;3.42;;
50102;SDS011;35993;52.604;10.078;2023-05-10T12:03:28;5.80;;;3.05;;
50102;SDS011;35993;52.604;10.078;2023-05-10T12:05:55;3.20;;;2.85;;
50102;SDS011;35993;52.604;10.078;2023-05-10T12:08:22;4.95;;;2.83;;
50102;SDS011;35993;52.604;10.078;2023-05-10T12:10:50;4.47;;;3.00;;
50102;SDS011;35993;52.604;10.078;2023-05-10T12:13:16;4.15;;;3.05;;
50102;SDS011;35993;52.604;10.078;2023-05-10T12:15:43;3.60;;;2.97;;
50102;SDS011;35993;52.604;10.078;2023-05-10T12:18:09;6.43;;;3.40;;
50102;SDS011;35993;52.604;10.078;2023-05-10T12:20:35;5.07;;;3.25;;
50102;SDS011;35993;52.604;10.078;2023-05-10T12:23:01;5.35;;;3.60;;
50102;SDS011;35993;52.604;10.078;2023-05-10T12:25:29;4.22;;;2.70;;
50102;SDS011;35993;52.604;10.078;2023-05-10T12:27:58;4.32;;;3.10;;
50102;SDS011;35993;52.604;10.078;2023-05-10T12:30:26;6.03;;;3.35;;
50102;SDS011;35993;52.604;10.078;2023-05-10T12:32:53;5.13;;;3.50;;
50102;SDS011;35993;52.604;10.078;2023-05-10T12:35:24;4.88;;;3.13;;
50102;SDS011;35993;52.604;10.078;2023-05-10T12:37:53;4.20;;;2.92;;
50102;SDS011;35993;52.604;10.078;2023-05-10T12:40:18;4.38;;;2.88;;
50102;SDS011;35993;52.604;10.078;2023-05-10T12:42:44;3.67;;;2.80;;
50102;SDS011;35993;52.604;10.078;2023-05-10T12:45:10;5.28;;;2.67;;
50102;SDS011;35993;52.604;10.078;2023-05-10T12:47:37;3.40;;;2.55;;
50102;SDS011;35993;52.604;10.078;2023-05-10T12:50:03;3.45;;;2.67;;
50102;SDS011;35993;52.604;10.078;2023-05-10T12:52:30;3.60;;;2.90;;
50102;SDS011;35993;52.604;10.078;2023-05-10T12:54:57;3.58;;;2.97;;
50102;SDS011;35993;52.604;10.078;2023-05-10T12:57:23;5.05;;;3.20;;
50102;SDS011;35993;52.604;10.078;2023-05-10T12:59:49;3.78;;;2.88;;
50102;SDS011;35993;52.604;10.078;2023-05-10T13:02:15;3.75;;;3.03;;
50102;SDS011;35993;52.604;10.078;2023-05-10T13:04:43;5.25;;;3.30;;
50102;SDS011;35993;52.604;10.078;2023-05-10T13:07:09;3.60;;;2.90;;
50102;SDS011;35993;52.604;10.078;2023-05-10T13:09:35;4.20;;;2.78;;
50102;SDS011;35993;52.604;10.078;2023-05-10T13:12:01;5.07;;;3.10;;
50102;SDS011;35993;52.604;10.078;2023-05-10T13:14:27;6.28;;;3.15;;
50102;SDS011;35993;52.604;10.078;2023-05-10T13:16:52;4.18;;;2.83;;
50102;SDS011;35993;52.604;10.078;2023-05-10T13:19:18;4.25;;;2.95;;
50102;SDS011;35993;52.604;10.078;2023-05-10T13:21:44;6.13;;;3.10;;
50102;SDS011;35993;52.604;10.078;2023-05-10T13:24:10;4.10;;;2.90;;
50102;SDS011;35993;52.604;10.078;2023-05-10T13:26:41;4.78;;;3.22;;
50102;SDS011;35993;52.604;10.078;2023-05-10T13:29:07;5.80;;;3.78;;
50102;SDS011;35993;52.604;10.078;2023-05-10T13:31:33;4.20;;;2.67;;
50102;SDS011;35993;52.604;10.078;2023-05-10T13:34:00;4.97;;;3.42;;
50102;SDS011;35993;52.604;10.078;2023-05-10T13:36:25;4.13;;;3.15;;
50102;SDS011;35993;52.604;10.078;2023-05-10T13:38:51;4.65;;;3.83;;
50102;SDS011;35993;52.604;10.078;2023-05-10T13:41:17;5.15;;;3.75;;
50102;SDS011;35993;52.604;10.078;2023-05-10T13:43:42;5.75;;;4.10;;
50102;SDS011;35993;52.604;10.078;2023-05-10T13:46:08;4.63;;;3.65;;
50102;SDS011;35993;52.604;10.078;2023-05-10T13:48:34;4.82;;;3.85;;
50102;SDS011;35993;52.604;10.078;2023-05-10T13:50:59;4.65;;;3.40;;
50102;SDS011;35993;52.604;10.078;2023-05-10T13:53:25;7.03;;;3.92;;
50102;SDS011;35993;52.604;10.078;2023-05-10T13:55:50;4.15;;;3.05;;
50102;SDS011;35993;52.604;10.078;2023-05-10T13:58:16;1.13;;;1.02;;
50102;SDS011;35993;52.604;10.078;2023-05-10T14:00:41;3.70;;;1.20;;
50102;SDS011;35993;52.604;10.078;2023-05-10T14:03:07;4.22;;;1.40;;
50102;SDS011;35993;52.604;10.078;2023-05-10T14:05:34;2.08;;;1.05;;
50102;SDS011;35993;52.604;10.078;2023-05-10T14:07:59;2.15;;;1.00;;
50102;SDS011;35993;52.604;10.078;2023-05-10T14:10:25;1.85;;;1.05;;
50102;SDS011;35993;52.604;10.078;2023-05-10T14:12:50;1.63;;;1.02;;
50102;SDS011;35993;52.604;10.078;2023-05-10T14:15:16;2.95;;;1.60;;
50102;SDS011;35993;52.604;10.078;2023-05-10T14:17:42;3.05;;;1.33;;
50102;SDS011;35993;52.604;10.078;2023-05-10T14:20:07;2.25;;;1.13;;
50102;SDS011;35993;52.604;10.078;2023-05-10T14:22:33;2.75;;;1.20;;
50102;SDS011;35993;52.604;10.078;2023-05-10T14:24:59;2.00;;;1.17;;
50102;SDS011;35993;52.604;10.078;2023-05-10T14:27:25;1.48;;;1.20;;
50102;SDS011;35993;52.604;10.078;2023-05-10T14:29:51;3.40;;;1.45;;
50102;SDS011;35993;52.604;10.078;2023-05-10T14:32:18;3.05;;;1.50;;
50102;SDS011;35993;52.604;10.078;2023-05-10T14:34:43;3.45;;;1.42;;
50102;SDS011;35993;52.604;10.078;2023-05-10T14:37:13;3.70;;;1.77;;
50102;SDS011;35993;52.604;10.078;2023-05-10T14:39:39;2.95;;;1.42;;
50102;SDS011;35993;52.604;10.078;2023-05-10T14:42:04;3.65;;;1.73;;
50102;SDS011;35993;52.604;10.078;2023-05-10T14:44:30;3.63;;;1.55;;
50102;SDS011;35993;52.604;10.078;2023-05-10T14:46:56;4.05;;;2.67;;
50102;SDS011;35993;52.604;10.078;2023-05-10T14:49:22;3.40;;;2.30;;
50102;SDS011;35993;52.604;10.078;2023-05-10T14:51:49;2.50;;;1.50;;
50102;SDS011;35993;52.604;10.078;2023-05-10T14:54:15;3.33;;;1.60;;
50102;SDS011;35993;52.604;10.078;2023-05-10T14:56:40;3.95;;;1.92;;
50102;SDS011;35993;52.604;10.078;2023-05-10T14:59:07;2.50;;;1.63;;
50102;SDS011;35993;52.604;10.078;2023-05-10T15:01:33;3.03;;;1.90;;
50102;SDS011;35993;52.604;10.078;2023-05-10T15:04:02;2.33;;;1.70;;